• Join FlightAware (Why Join?)
  • Login
  • US Flag 
12:04AM EDT


 

Airport Tracker/Info


-or-


 

Live Flight TrackerFlight Track Log ✈ N777NC ✈ 07-Jul-2013 ✈ KORD - KATL

Flight Track Log - Related Links

Times and Time Zones

All times are in EDT time to prevent confusion due to time zone crossing. See the N777NC flight status page for this flight to view local times or setup timezone preferences in your user account.

Time Position Orientation Groundspeed Altitude Reporting Facility
EDT Latitude Longitude Course Direction KTS MPH feet Rate Location/Type
09:58AM 41.9500 -87.9167 166° South 166 191 1,800  Level Chicago TRACON
10:00AM 41.8106 -87.8892 172° South 240 276 5,500 1,860 Climbing Chicago Center
10:01AM 41.5642 -87.7112 168° South  Level Estimated
10:01AM 41.7356 -87.8681 168° South 269 310 7,600  Level Chicago Center
10:02AM 41.4634 -87.7719 204° Southwest  Level FlightAware Approximate
10:02AM 41.6558 -87.8456 168° South 291 335 10,200  Level Chicago Center
10:03AM 41.3594 -87.7221 166° South  Level Estimated
10:03AM 41.5722 -87.8308 172° South 300 345 12,400  Level Chicago Center
10:04AM 41.4750 -87.8267 178° South 344 396 13,300 1,380 Climbing Chicago Center
10:05AM 41.3700 -87.8047 171° South 378 435 15,300 1,980 Climbing Chicago Center
10:06AM 41.2450 -87.7614 165° South 384 442 17,500 2,040 Climbing Chicago Center
10:07AM 41.1372 -87.7208 164° South 400 460 19,600 1,560 Climbing Chicago Center
10:08AM 41.0278 -87.6972 171° South 399 459 20,800 960 Climbing Chicago Center
10:09AM 40.9103 -87.6711 170° South 425 489 21,600 1,200 Climbing Chicago Center
10:10AM 40.7889 -87.6472 172° South 441 507 23,400 1,260 Climbing Chicago Center
10:11AM 40.6700 -87.6256 172° South 435 501 24,300 960 Climbing Chicago Center
10:12AM 40.5217 -87.5900 170° South 454 522 25,500 960 Climbing Chicago Center
10:13AM 40.3967 -87.5586 169° South 458 527 26,300 780 Climbing Chicago Center
10:14AM 40.2689 -87.5264 169° South 467 537 27,200 720 Climbing Chicago Center
10:15AM 40.1458 -87.4939 169° South 479 551 27,900 960 Climbing Chicago Center
10:16AM 40.0122 -87.4600 169° South 481 554 29,000 540 Climbing Indianapolis Center
10:17AM 39.8800 -87.4269 169° South 486 559 29,000 420 Level Indianapolis Center
10:18AM 39.7447 -87.3906 168° South 498 573 29,900 960 Climbing Indianapolis Center
10:19AM 39.6136 -87.3506 167° South 490 564 31,100 1,020 Climbing Indianapolis Center
10:20AM 39.4831 -87.3128 167° South 486 559 32,100 960 Climbing Indianapolis Center
10:21AM 39.3250 -87.2800 171° South 483 556 33,100 420 Climbing Indianapolis Center
10:22AM 39.1900 -87.2514 171° South 492 566 33,000 -60 Descending Indianapolis Center
10:23AM 39.0519 -87.2167 169° South 495 570 33,000  Level Indianapolis Center
10:25AM 38.9183 -87.1756 167° South 492 566 33,000  Level Indianapolis Center
10:26AM 38.7858 -87.1328 166° South 489 563 33,000  Level Indianapolis Center
10:27AM 38.6558 -87.0878 165° South 483 556 33,000  Level Indianapolis Center
10:28AM 38.5267 -87.0408 164° South 479 551 33,000  Level Indianapolis Center
10:29AM 38.3825 -86.9842 163° South 483 556 33,000  Level Indianapolis Center
10:30AM 38.2544 -86.9317 162° South 485 558 33,000  Level Indianapolis Center
10:31AM 38.1297 -86.8756 161° South 487 560 33,000  Level Indianapolis Center
10:32AM 38.0022 -86.8214 161° South 481 554 33,000  Level Indianapolis Center
10:33AM 37.8747 -86.7672 161° South 480 552 33,000  Level Indianapolis Center
10:34AM 37.7242 -86.7039 162° South 474 545 33,000  Level Indianapolis Center
10:35AM 37.5997 -86.6481 160° South 475 547 33,000  Level Indianapolis Center
10:36AM 37.4822 -86.5981 161° South 475 547 33,000  Level Indianapolis Center
10:37AM 37.3550 -86.5472 162° South 474 545 33,000  Level Indianapolis Center
10:38AM 37.2275 -86.5025 164° South 470 541 33,000  Level Indianapolis Center
10:39AM 37.0772 -86.4672 169° South 464 534 33,000  Level Memphis Center
10:40AM 36.9492 -86.4422 171° South 470 541 33,000  Level Memphis Center
10:41AM 36.8339 -86.4219 172° South 470 541 33,000  Level Memphis Center
10:42AM 36.7044 -86.4128 177° South 465 535 33,000  Level Memphis Center
10:43AM 36.5792 -86.4061 178° South 465 535 33,000  Level Memphis Center
10:44AM 36.4500 -86.4072 180° South 460 529 33,000  Level Memphis Center
10:45AM 36.3125 -86.4114 181° South 460 529 33,000  Level Memphis Center
10:46AM 36.1853 -86.4097 179° South 460 529 33,000  Level Memphis Center
10:47AM 36.0581 -86.4056 178° South 460 529 33,000  Level Memphis Center
10:48AM 35.9319 -86.3758 169° South 460 529 33,000  Level Memphis Center
10:50AM 35.6978 -86.2889 163° South 462 532 33,000  Level Atlanta Center
10:51AM 35.5803 -86.2144 153° Southeast 471 542 33,000  Level Atlanta Center
10:52AM 35.4792 -86.1428 150° Southeast 471 542 33,000 -600 Level Atlanta Center
10:53AM 35.3578 -86.0481 148° Southeast 471 542 31,800 -1,080 Descending Atlanta Center
10:54AM 35.2608 -85.9719 147° Southeast 471 542 30,900 -1,080 Descending Atlanta Center
10:55AM 35.1556 -85.8906 148° Southeast 461 531 29,700 -1,680 Descending Atlanta Center
10:56AM 35.0483 -85.8044 147° Southeast 456 525 27,600 -2,700 Descending Atlanta Center
10:57AM 34.9606 -85.6733 129° Southeast 449 517 24,300 -1,800 Descending Atlanta Center
10:58AM 34.8847 -85.5531 128° Southeast 449 517 24,000 -300 Descending Atlanta Center
10:59AM 34.7961 -85.4628 140° Southeast 428 493 23,800 -1,740 Descending Atlanta Center
11:00AM 34.6947 -85.3853 148° Southeast 428 493 20,600 -3,000 Descending Atlanta Center
11:01AM 34.5975 -85.3106 148° Southeast 423 487 17,900 -2,520 Descending Atlanta Center
11:02AM 34.5000 -85.2639 158° South 401 461 15,600 -1,800 Descending Atlanta Center
11:03AM 34.4003 -85.2169 159° South 389 448 14,400 -1,200 Descending Atlanta Center
11:04AM 34.3003 -85.1803 163° South 381 438 13,300 -720 Descending Atlanta Center
11:05AM 34.2172 -85.1442 160° South 376 433 13,000 -180 Descending Atlanta Center
11:06AM 34.1278 -85.0928 155° Southeast 357 411 13,000 -300 Level Atlanta Center
11:07AM 34.0828 -85.0094 123° Southeast 308 354 12,400 -1,200 Descending Atlanta Center
11:08AM 34.0353 -84.9336 127° Southeast 289 333 10,600 -1,440 Descending Atlanta Center
11:09AM 33.9708 -84.8803 146° Southeast 276 318 9,600 -1,080 Descending Atlanta Center
11:10AM 33.9003 -84.8372 153° Southeast 281 323 8,500 -1,500 Descending Atlanta Center
11:10AM 33.8500 -84.8333 176° South 281 323 7,300 -1,560 Descending Atlanta TRACON
11:11AM 33.7667 -84.8333 180° South 274 315 6,100 -660 Descending Atlanta TRACON
11:12AM 33.7000 -84.8500 192° South 231 266 6,000 -420 Descending Atlanta TRACON
11:13AM 33.6500 -84.8167 151° Southeast 207 238 5,300 -480 Descending Atlanta TRACON
11:14AM 33.6500 -84.7500 90° East 196 226 5,100 -300 Descending Atlanta TRACON
11:15AM 33.6500 -84.6833 90° East 189 217 4,800 -300 Descending Atlanta TRACON